createdAt,value
2022-11-24T00:02:31.086Z,13.60
2022-11-24T00:10:53.784Z,13.90
2022-11-24T00:19:19.595Z,14.40
2022-11-24T00:27:41.667Z,16.00
2022-11-24T00:36:03.716Z,12.40
2022-11-24T00:44:25.726Z,12.50
2022-11-24T00:52:47.686Z,15.30
2022-11-24T01:01:13.965Z,13.80
2022-11-24T01:09:37.305Z,13.40
2022-11-24T01:17:59.237Z,14.60
2022-11-24T01:26:22.128Z,13.20
2022-11-24T01:34:43.762Z,11.40
2022-11-24T01:43:16.652Z,13.20
2022-11-24T01:51:44.925Z,11.20
2022-11-24T02:00:10.736Z,11.50
2022-11-24T02:09:04.116Z,13.10
2022-11-24T02:17:25.713Z,11.40
2022-11-24T02:26:06.243Z,11.30
2022-11-24T02:34:28.206Z,8.80
2022-11-24T02:42:54.690Z,9.90
2022-11-24T02:51:16.507Z,8.10
2022-11-24T02:59:39.254Z,11.80
2022-11-24T03:08:01.354Z,10.20
2022-11-24T03:16:22.847Z,12.10
2022-11-24T03:24:44.860Z,16.60
2022-11-24T03:33:06.622Z,9.60
2022-11-24T03:41:28.120Z,10.40
2022-11-24T03:49:50.047Z,12.40
2022-11-24T03:58:11.668Z,15.20
2022-11-24T04:06:33.508Z,11.00
2022-11-24T04:14:55.026Z,10.80
2022-11-24T04:23:17.424Z,10.50
2022-11-24T04:31:38.985Z,12.30
2022-11-24T04:40:02.341Z,10.60
2022-11-24T04:48:24.041Z,11.90
2022-11-24T04:56:50.955Z,11.70
2022-11-24T05:05:12.485Z,9.40
2022-11-24T05:13:34.992Z,10.30
2022-11-24T05:21:57.380Z,12.70
2022-11-24T05:30:18.953Z,8.80
2022-11-24T05:38:40.384Z,9.60
2022-11-24T05:47:02.351Z,9.30
2022-11-24T05:55:23.824Z,8.70
2022-11-24T06:03:46.238Z,9.70
2022-11-24T06:12:14.323Z,10.80
2022-11-24T06:20:35.909Z,14.50
2022-11-24T06:28:58.256Z,10.90
2022-11-24T06:37:20.324Z,10.30
2022-11-24T06:45:42.539Z,12.40
2022-11-24T06:54:09.410Z,11.80
2022-11-24T07:02:31.264Z,18.50
2022-11-24T07:10:52.757Z,35.20
2022-11-24T07:19:14.407Z,11.00
2022-11-24T07:27:36.758Z,9.10
2022-11-24T07:36:02.515Z,17.60
2022-11-24T07:44:23.963Z,15.60
2022-11-24T07:52:46.314Z,10.20
2022-11-24T08:01:13.971Z,9.60
2022-11-24T08:09:35.645Z,11.20
2022-11-24T08:18:00.678Z,13.30
2022-11-24T08:26:24.299Z,9.00
2022-11-24T08:34:45.944Z,10.20
2022-11-24T08:43:07.491Z,9.80
2022-11-24T08:51:29.099Z,8.00
2022-11-24T08:59:51.863Z,10.00
2022-11-24T09:08:13.368Z,11.90
2022-11-24T09:16:35.477Z,9.70
2022-11-24T09:24:57.557Z,12.00
2022-11-24T09:33:19.174Z,13.40
2022-11-24T09:42:07.524Z,8.20
2022-11-24T09:50:36.125Z,11.50
2022-11-24T09:59:13.644Z,9.90
2022-11-24T10:07:53.183Z,9.90
2022-11-24T10:16:44.577Z,17.90
2022-11-24T10:25:18.237Z,12.60
2022-11-24T10:33:41.839Z,13.30
2022-11-24T10:42:25.525Z,12.30
2022-11-24T10:50:47.606Z,13.00
2022-11-24T10:59:28.542Z,14.20
2022-11-24T11:07:50.199Z,10.00
2022-11-24T11:16:23.496Z,18.90
2022-11-24T11:24:47.868Z,14.60
2022-11-24T11:42:45.313Z,16.70
2022-11-24T11:51:23.402Z,20.60
2022-11-24T11:59:51.218Z,9.30
2022-11-24T12:08:24.999Z,9.80
2022-11-24T12:17:11.070Z,12.00
2022-11-24T12:26:04.280Z,16.30
2022-11-24T12:34:42.862Z,16.30
2022-11-24T12:43:20.270Z,13.20
2022-11-24T12:51:45.452Z,13.90
2022-11-24T13:00:20.627Z,12.10
2022-11-24T13:08:42.780Z,14.70
2022-11-24T13:17:33.751Z,12.90
2022-11-24T13:26:14.818Z,10.40
2022-11-24T13:34:43.181Z,13.30
2022-11-24T13:43:04.862Z,16.90
2022-11-24T13:51:26.435Z,19.00
2022-11-24T13:59:48.095Z,19.40
2022-11-24T14:08:28.925Z,17.40
2022-11-24T14:17:16.882Z,19.00
2022-11-24T14:25:38.383Z,18.70
2022-11-24T14:34:11.718Z,27.30
2022-11-24T14:42:34.367Z,37.10
2022-11-24T14:51:15.608Z,27.90
2022-11-24T14:59:37.618Z,31.90
2022-11-24T15:08:02.372Z,61.50
2022-11-24T15:16:28.615Z,39.50
2022-11-24T15:24:52.974Z,50.00
2022-11-24T15:33:16.588Z,109.10
2022-11-24T15:41:38.238Z,42.90
2022-11-24T17:30:57.593Z,67.30
2022-11-24T17:39:24.800Z,83.40
2022-11-24T17:47:47.104Z,68.90
2022-11-24T17:56:13.193Z,52.00
2022-11-24T18:04:35.700Z,52.00
2022-11-24T18:12:58.072Z,48.80
2022-11-24T18:21:19.599Z,36.60
2022-11-24T18:29:41.572Z,46.30
2022-11-24T18:38:04.060Z,104.60
2022-11-24T18:46:25.918Z,59.60
2022-11-24T18:54:47.695Z,44.90
2022-11-24T19:03:09.740Z,67.80
2022-11-24T19:11:35.765Z,73.50
2022-11-24T19:19:58.002Z,39.20
2022-11-24T19:28:19.672Z,42.20
2022-11-24T19:36:42.654Z,45.60
2022-11-24T19:45:05.432Z,34.80
2022-11-24T19:53:28.030Z,31.60
2022-11-24T20:01:49.722Z,38.30
2022-11-24T20:10:11.523Z,46.90
2022-11-24T20:18:37.576Z,35.00
2022-11-24T20:27:03.199Z,52.90
2022-11-24T20:35:25.187Z,43.20
2022-11-24T20:43:48.032Z,40.80
2022-11-24T20:52:10.951Z,38.60
2022-11-24T21:00:32.468Z,52.30
2022-11-24T21:08:58.975Z,45.00
2022-11-24T21:17:24.611Z,45.90
2022-11-24T21:25:46.395Z,45.00
2022-11-24T21:34:08.325Z,40.30
2022-11-24T21:42:29.887Z,35.90
2022-11-24T21:50:51.691Z,38.40
2022-11-24T21:59:13.383Z,32.70
2022-11-24T22:07:35.085Z,25.70
2022-11-24T22:16:01.745Z,33.40
2022-11-24T22:24:27.229Z,30.10
2022-11-24T22:32:49.592Z,30.20
2022-11-24T22:41:14.512Z,36.00
2022-11-24T22:49:36.167Z,28.40
2022-11-24T22:57:59.254Z,30.50
2022-11-24T23:06:24.355Z,42.00
2022-11-24T23:14:45.955Z,35.70
2022-11-24T23:23:07.601Z,40.20
2022-11-24T23:31:30.203Z,40.20
2022-11-24T23:39:52.044Z,26.70
2022-11-24T23:48:13.585Z,33.60
2022-11-24T23:56:35.285Z,27.80
